Time;durP1;ratioP1;P1;durP2;ratioP2;P2;SDS_P1;SDS_P2;PMS_P1;PMS_P2;Temp;Humidity;BMP_temperature;BMP_pressure;BME280_temperature;BME280_humidity;BME280_pressure;Samples;Min_cycle;Max_cycle;Signal;HPM_P1;HPM_P2
2021/09/07 00:02:26;;;;;;;0.08;0.08;;;;;;;;;;5016412;28;20544;-66
2021/09/07 00:04:53;;;;;;;0.00;0.00;;;;;;;;;;5005282;28;20239;-65
2021/09/07 00:07:19;;;;;;;0.10;0.10;;;;;;;;;;5012908;28;20205;-65
2021/09/07 00:09:47;;;;;;;0.10;0.10;;;;;;;;;;5024933;28;20207;-65
2021/09/07 00:12:14;;;;;;;0.00;0.00;;;;;;;;;;5011538;28;20239;-65
2021/09/07 00:14:40;;;;;;;0.10;0.10;;;;;;;;;;5025229;28;20430;-66
2021/09/07 00:17:06;;;;;;;0.10;0.10;;;;;;;;;;5034657;28;20273;-66
2021/09/07 00:19:34;;;;;;;0.10;0.10;;;;;;;;;;5015373;28;20276;-65
2021/09/07 00:22:00;;;;;;;0.08;0.08;;;;;;;;;;5011235;28;20525;-65
2021/09/07 00:24:26;;;;;;;0.00;0.00;;;;;;;;;;5016335;28;20214;-65
2021/09/07 00:26:52;;;;;;;0.10;0.10;;;;;;;;;;5005284;28;20207;-65
2021/09/07 00:29:19;;;;;;;0.08;0.08;;;;;;;;;;5005302;28;20217;-66
2021/09/07 00:31:45;;;;;;;0.00;0.00;;;;;;;;;;5017663;28;20225;-65
2021/09/07 00:34:11;;;;;;;0.10;0.10;;;;;;;;;;5019972;28;20214;-66
2021/09/07 00:36:38;;;;;;;0.00;0.00;;;;;;;;;;5005227;28;20369;-64
2021/09/07 00:39:05;;;;;;;0.08;0.08;;;;;;;;;;5005031;28;20208;-64
2021/09/07 00:41:31;;;;;;;0.08;0.08;;;;;;;;;;5022788;28;20236;-65
2021/09/07 00:43:57;;;;;;;0.00;0.00;;;;;;;;;;5029106;28;20206;-64
2021/09/07 00:46:23;;;;;;;0.10;0.10;;;;;;;;;;5016618;28;20208;-64
2021/09/07 00:48:49;;;;;;;0.10;0.10;;;;;;;;;;5017955;28;20206;-64
2021/09/07 00:51:16;;;;;;;0.00;0.00;;;;;;;;;;5024357;28;20234;-64
2021/09/07 00:53:43;;;;;;;0.00;0.00;;;;;;;;;;5013198;28;20391;-64
2021/09/07 00:56:10;;;;;;;0.10;0.10;;;;;;;;;;5008068;28;20206;-64
2021/09/07 00:58:37;;;;;;;0.00;0.00;;;;;;;;;;5024282;28;20202;-64
2021/09/07 01:01:03;;;;;;;0.10;0.10;;;;;;;;;;5012609;28;20514;-65
2021/09/07 01:03:29;;;;;;;0.10;0.10;;;;;;;;;;5019112;28;20245;-65
2021/09/07 01:05:56;;;;;;;0.03;0.03;;;;;;;;;;5007514;28;20215;-65
2021/09/07 01:08:22;;;;;;;0.00;0.00;;;;;;;;;;5004594;28;20398;-64
2021/09/07 01:10:49;;;;;;;0.10;0.10;;;;;;;;;;5004465;28;20235;-64
2021/09/07 01:13:16;;;;;;;0.00;0.00;;;;;;;;;;5018432;28;20273;-64
2021/09/07 01:15:42;;;;;;;0.00;0.00;;;;;;;;;;5004467;28;20230;-65
2021/09/07 01:18:08;;;;;;;0.10;0.10;;;;;;;;;;5018223;28;20386;-65
2021/09/07 01:20:35;;;;;;;0.10;0.10;;;;;;;;;;5004459;28;20405;-66
2021/09/07 01:23:01;;;;;;;0.10;0.10;;;;;;;;;;5017995;28;20213;-65
2021/09/07 01:25:28;;;;;;;0.20;0.20;;;;;;;;;;5003760;28;20216;-65
2021/09/07 01:27:54;;;;;;;0.10;0.10;;;;;;;;;;5030786;28;20231;-65
2021/09/07 01:30:21;;;;;;;0.05;0.05;;;;;;;;;;5015608;28;20209;-65
2021/09/07 01:32:47;;;;;;;0.00;0.00;;;;;;;;;;5020544;28;20231;-66
2021/09/07 01:35:13;;;;;;;0.10;0.10;;;;;;;;;;5003976;28;20265;-67
2021/09/07 01:37:40;;;;;;;0.00;0.00;;;;;;;;;;5013540;28;20213;-66
2021/09/07 01:40:07;;;;;;;0.10;0.10;;;;;;;;;;5009672;28;20271;-65
2021/09/07 01:42:34;;;;;;;0.00;0.00;;;;;;;;;;5014350;28;20486;-66
2021/09/07 01:45:01;;;;;;;0.10;0.10;;;;;;;;;;5017505;28;20234;-65
2021/09/07 01:47:27;;;;;;;0.10;0.10;;;;;;;;;;5003859;28;20207;-66
2021/09/07 01:49:53;;;;;;;0.00;0.00;;;;;;;;;;5003644;28;20214;-66
2021/09/07 01:52:19;;;;;;;0.00;0.00;;;;;;;;;;5003216;28;20230;-66
2021/09/07 01:54:47;;;;;;;0.00;0.00;;;;;;;;;;5014210;28;20489;-65
2021/09/07 01:57:13;;;;;;;0.00;0.00;;;;;;;;;;5006608;28;20388;-66
2021/09/07 01:59:40;;;;;;;0.08;0.08;;;;;;;;;;5017528;28;20427;-65
2021/09/07 02:02:07;;;;;;;0.00;0.00;;;;;;;;;;5003269;28;20206;-65
2021/09/07 02:04:33;;;;;;;0.00;0.00;;;;;;;;;;5003211;28;20436;-65
2021/09/07 02:06:59;;;;;;;0.10;0.10;;;;;;;;;;5003172;28;20210;-66
2021/09/07 02:09:26;;;;;;;0.10;0.10;;;;;;;;;;5003417;28;20245;-66
2021/09/07 02:11:53;;;;;;;0.20;0.20;;;;;;;;;;5003469;28;20386;-65
2021/09/07 02:14:19;;;;;;;0.00;0.00;;;;;;;;;;5011154;28;20264;-66
2021/09/07 02:16:46;;;;;;;0.00;0.00;;;;;;;;;;5022941;28;20207;-66
2021/09/07 02:19:12;;;;;;;0.00;0.00;;;;;;;;;;5019185;28;20436;-65
2021/09/07 02:21:39;;;;;;;0.00;0.00;;;;;;;;;;5016364;28;20200;-65
2021/09/07 02:24:05;;;;;;;0.00;0.00;;;;;;;;;;5022085;28;20210;-66
2021/09/07 02:26:31;;;;;;;0.00;0.00;;;;;;;;;;5023054;28;20238;-66
2021/09/07 02:28:57;;;;;;;0.00;0.00;;;;;;;;;;5019495;28;20462;-66
2021/09/07 02:31:23;;;;;;;0.10;0.10;;;;;;;;;;5012214;28;20228;-65
2021/09/07 02:33:51;;;;;;;0.10;0.10;;;;;;;;;;5008999;28;20351;-65
2021/09/07 02:36:20;;;;;;;0.10;0.10;;;;;;;;;;5022781;28;20215;-65
2021/09/07 02:38:46;;;;;;;0.00;0.00;;;;;;;;;;5022708;28;20205;-65
2021/09/07 02:41:12;;;;;;;0.05;0.05;;;;;;;;;;5016939;28;20492;-65
2021/09/07 02:43:39;;;;;;;0.10;0.10;;;;;;;;;;5004678;28;20215;-65
2021/09/07 02:46:05;;;;;;;0.00;0.00;;;;;;;;;;5002966;28;20225;-65
2021/09/07 02:48:32;;;;;;;0.10;0.10;;;;;;;;;;5002616;28;20237;-66
2021/09/07 02:50:59;;;;;;;0.10;0.10;;;;;;;;;;5016854;28;20497;-65
2021/09/07 02:53:26;;;;;;;0.00;0.00;;;;;;;;;;5002978;28;20240;-65
2021/09/07 02:55:52;;;;;;;0.00;0.00;;;;;;;;;;5002986;28;20214;-65
2021/09/07 02:58:18;;;;;;;0.10;0.10;;;;;;;;;;5016182;28;20206;-64
2021/09/07 03:00:44;;;;;;;0.10;0.10;;;;;;;;;;5027210;28;20274;-65
2021/09/07 03:03:10;;;;;;;0.00;0.00;;;;;;;;;;5005646;28;20217;-66
2021/09/07 03:05:37;;;;;;;0.10;0.10;;;;;;;;;;5002612;28;20207;-66
2021/09/07 03:08:05;;;;;;;0.00;0.00;;;;;;;;;;5018942;28;20216;-66
2021/09/07 03:10:33;;;;;;;0.05;0.05;;;;;;;;;;5034291;28;20205;-66
2021/09/07 03:12:59;;;;;;;0.00;0.00;;;;;;;;;;5015853;28;20251;-65
2021/09/07 03:15:25;;;;;;;0.00;0.00;;;;;;;;;;5006707;28;20454;-66
2021/09/07 03:17:52;;;;;;;0.08;0.08;;;;;;;;;;5019676;28;20207;-65
2021/09/07 03:20:18;;;;;;;0.00;0.00;;;;;;;;;;5031313;28;20259;-65
2021/09/07 03:22:44;;;;;;;0.10;0.10;;;;;;;;;;5033765;28;20202;-65
2021/09/07 03:25:12;;;;;;;0.10;0.10;;;;;;;;;;5040111;28;20201;-65
2021/09/07 03:27:39;;;;;;;0.10;0.10;;;;;;;;;;5017210;28;20215;-66
2021/09/07 03:30:06;;;;;;;0.10;0.10;;;;;;;;;;5006087;28;20210;-65
2021/09/07 03:32:32;;;;;;;0.10;0.10;;;;;;;;;;5008795;28;20229;-65
2021/09/07 03:34:58;;;;;;;0.03;0.03;;;;;;;;;;5006218;28;20282;-66
2021/09/07 03:37:25;;;;;;;0.00;0.00;;;;;;;;;;5011010;28;20229;-66
2021/09/07 03:39:51;;;;;;;0.10;0.10;;;;;;;;;;5007974;28;20210;-65
2021/09/07 03:42:20;;;;;;;0.10;0.10;;;;;;;;;;5018025;28;20218;-66
2021/09/07 03:44:46;;;;;;;0.05;0.05;;;;;;;;;;5005964;28;20214;-65
2021/09/07 03:47:12;;;;;;;0.10;0.10;;;;;;;;;;5005925;28;20269;-65
2021/09/07 03:49:39;;;;;;;0.08;0.08;;;;;;;;;;5005739;28;20504;-66
2021/09/07 03:52:06;;;;;;;0.10;0.10;;;;;;;;;;5019533;28;20218;-65
2021/09/07 03:54:34;;;;;;;0.10;0.10;;;;;;;;;;5016149;28;20515;-66
2021/09/07 03:57:01;;;;;;;0.03;0.03;;;;;;;;;;5011086;28;20281;-65
2021/09/07 03:59:29;;;;;;;0.10;0.10;;;;;;;;;;5024974;28;20218;-64
2021/09/07 04:01:55;;;;;;;0.10;0.10;;;;;;;;;;5009630;28;20219;-65
2021/09/07 04:04:24;;;;;;;0.10;0.10;;;;;;;;;;5004851;28;20239;-68
2021/09/07 04:06:51;;;;;;;0.10;0.10;;;;;;;;;;5005492;28;20203;-67
2021/09/07 04:09:19;;;;;;;0.10;0.10;;;;;;;;;;5005498;28;20452;-67
2021/09/07 04:11:46;;;;;;;0.10;0.10;;;;;;;;;;5005415;28;20211;-67
2021/09/07 04:14:12;;;;;;;0.03;0.03;;;;;;;;;;5013994;28;20276;-65
2021/09/07 04:16:40;;;;;;;0.10;0.10;;;;;;;;;;5023630;28;20233;-68
2021/09/07 04:19:06;;;;;;;0.05;0.05;;;;;;;;;;5019211;28;20210;-68
2021/09/07 04:21:33;;;;;;;0.00;0.00;;;;;;;;;;5015442;28;20206;-68
2021/09/07 04:24:00;;;;;;;0.10;0.10;;;;;;;;;;5005240;28;20497;-67
2021/09/07 04:26:26;;;;;;;0.10;0.10;;;;;;;;;;5030532;28;20485;-67
2021/09/07 04:28:53;;;;;;;0.10;0.10;;;;;;;;;;5026008;28;20543;-67
2021/09/07 04:31:19;;;;;;;0.10;0.10;;;;;;;;;;5013795;28;20210;-68
2021/09/07 04:33:48;;;;;;;0.10;0.10;;;;;;;;;;5011080;28;20551;-68
2021/09/07 04:36:14;;;;;;;0.10;0.10;;;;;;;;;;5034845;28;20214;-68
2021/09/07 04:38:41;;;;;;;0.10;0.10;;;;;;;;;;5008963;28;20433;-66
2021/09/07 04:41:10;;;;;;;0.03;0.03;;;;;;;;;;5004981;28;20202;-67
2021/09/07 04:43:36;;;;;;;0.10;0.10;;;;;;;;;;5018732;28;20209;-65
2021/09/07 04:46:02;;;;;;;0.10;0.10;;;;;;;;;;5004690;28;20207;-67
2021/09/07 04:48:29;;;;;;;0.10;0.10;;;;;;;;;;5016616;28;20269;-67
2021/09/07 04:50:57;;;;;;;0.00;0.00;;;;;;;;;;5005955;28;20293;-68
2021/09/07 04:53:23;;;;;;;0.10;0.10;;;;;;;;;;5004971;28;20280;-67
2021/09/07 04:55:52;;;;;;;0.07;0.07;;;;;;;;;;5007013;28;20273;-67
2021/09/07 04:58:19;;;;;;;0.05;0.05;;;;;;;;;;5033545;28;20200;-67
2021/09/07 05:00:46;;;;;;;0.10;0.10;;;;;;;;;;5028506;28;20234;-67
2021/09/07 05:03:12;;;;;;;0.10;0.10;;;;;;;;;;5021497;28;20250;-67
2021/09/07 05:05:40;;;;;;;0.10;0.10;;;;;;;;;;5012293;28;20215;-68
2021/09/07 05:08:07;;;;;;;0.10;0.10;;;;;;;;;;5009591;28;20206;-66
2021/09/07 05:10:34;;;;;;;0.10;0.10;;;;;;;;;;5010697;28;20271;-68
2021/09/07 05:13:00;;;;;;;0.10;0.10;;;;;;;;;;5011497;28;20265;-68
2021/09/07 05:15:26;;;;;;;2.72;2.63;;;;;;;;;;5032125;28;20202;-67
2021/09/07 05:17:52;;;;;;;0.10;0.10;;;;;;;;;;5004129;28;20548;-67
2021/09/07 05:20:19;;;;;;;0.10;0.10;;;;;;;;;;5007034;28;20228;-68
2021/09/07 05:22:46;;;;;;;0.10;0.10;;;;;;;;;;5013244;28;20510;-68
2021/09/07 05:25:14;;;;;;;0.38;0.38;;;;;;;;;;5004037;28;20422;-68
2021/09/07 05:27:40;;;;;;;0.10;0.10;;;;;;;;;;5012674;28;20244;-67
2021/09/07 05:30:08;;;;;;;0.10;0.10;;;;;;;;;;5023300;28;20209;-67
2021/09/07 05:32:34;;;;;;;0.10;0.10;;;;;;;;;;5022964;28;20550;-67
2021/09/07 05:35:01;;;;;;;0.10;0.10;;;;;;;;;;5014170;28;20259;-66
2021/09/07 05:37:28;;;;;;;0.10;0.10;;;;;;;;;;5018864;28;20255;-67
2021/09/07 05:39:54;;;;;;;0.10;0.10;;;;;;;;;;5017136;28;20280;-66
2021/09/07 05:42:21;;;;;;;0.10;0.10;;;;;;;;;;5013590;28;20459;-65
2021/09/07 05:44:48;;;;;;;0.03;0.03;;;;;;;;;;5010153;28;20272;-67
2021/09/07 05:47:14;;;;;;;0.10;0.10;;;;;;;;;;5010867;28;20427;-67
2021/09/07 05:49:40;;;;;;;0.00;0.00;;;;;;;;;;5011347;28;20218;-66
2021/09/07 05:52:07;;;;;;;0.07;0.07;;;;;;;;;;5010793;28;20259;-67
2021/09/07 05:54:33;;;;;;;0.10;0.10;;;;;;;;;;5014400;28;20246;-67
2021/09/07 05:56:59;;;;;;;0.10;0.10;;;;;;;;;;5012116;28;20241;-61
2021/09/07 05:59:27;;;;;;;0.00;0.00;;;;;;;;;;5018825;28;20420;-63
2021/09/07 06:01:54;;;;;;;0.05;0.05;;;;;;;;;;5022163;28;20291;-62
2021/09/07 06:04:20;;;;;;;0.10;0.10;;;;;;;;;;5019015;28;20548;-62
2021/09/07 06:06:46;;;;;;;0.10;0.10;;;;;;;;;;5020938;28;20213;-62
2021/09/07 06:09:13;;;;;;;0.10;0.10;;;;;;;;;;5018296;28;20213;-62
2021/09/07 06:11:39;;;;;;;0.10;0.10;;;;;;;;;;5016359;28;20496;-63
2021/09/07 06:14:06;;;;;;;0.10;0.10;;;;;;;;;;5020079;28;20225;-61
2021/09/07 06:16:33;;;;;;;0.00;0.00;;;;;;;;;;5016265;28;20201;-62
2021/09/07 06:18:59;;;;;;;0.10;0.10;;;;;;;;;;5014025;28;20207;-61
2021/09/07 06:21:26;;;;;;;0.08;0.08;;;;;;;;;;5019009;28;20213;-61
2021/09/07 06:23:52;;;;;;;0.00;0.00;;;;;;;;;;5009969;28;20597;-61
2021/09/07 06:26:19;;;;;;;0.10;0.10;;;;;;;;;;5016313;28;20231;-60
2021/09/07 06:28:45;;;;;;;0.00;0.00;;;;;;;;;;5016327;28;20209;-61
2021/09/07 06:31:11;;;;;;;0.00;0.00;;;;;;;;;;5014105;28;20237;-62
2021/09/07 06:33:39;;;;;;;0.10;0.10;;;;;;;;;;5022480;28;20241;-61
2021/09/07 06:36:05;;;;;;;0.10;0.10;;;;;;;;;;5023923;28;20528;-61
2021/09/07 06:38:32;;;;;;;0.00;0.00;;;;;;;;;;5012416;28;20243;-61
2021/09/07 06:40:58;;;;;;;0.10;0.10;;;;;;;;;;5022337;28;20369;-62
2021/09/07 06:43:24;;;;;;;0.10;0.10;;;;;;;;;;5022788;28;20265;-62
2021/09/07 06:45:50;;;;;;;0.15;0.15;;;;;;;;;;5017245;28;20204;-62
2021/09/07 06:48:17;;;;;;;0.00;0.00;;;;;;;;;;5030338;28;20203;-62
2021/09/07 06:50:44;;;;;;;0.05;0.05;;;;;;;;;;5026500;28;20201;-63
2021/09/07 06:53:11;;;;;;;0.00;0.00;;;;;;;;;;5026357;28;20227;-61
2021/09/07 06:55:38;;;;;;;0.10;0.10;;;;;;;;;;5038345;28;20544;-60
2021/09/07 06:58:05;;;;;;;0.10;0.10;;;;;;;;;;5031691;28;20248;-62
2021/09/07 07:00:31;;;;;;;0.10;0.10;;;;;;;;;;5035073;28;20207;-62
2021/09/07 07:02:57;;;;;;;0.10;0.10;;;;;;;;;;5030296;28;20372;-61
2021/09/07 07:05:24;;;;;;;0.10;0.10;;;;;;;;;;5026997;28;20213;-62
2021/09/07 07:07:52;;;;;;;0.10;0.10;;;;;;;;;;5035643;28;20237;-62
2021/09/07 07:10:18;;;;;;;0.10;0.10;;;;;;;;;;5020713;28;20256;-61
2021/09/07 07:12:44;;;;;;;0.00;0.00;;;;;;;;;;5034945;28;20246;-61
2021/09/07 07:15:11;;;;;;;0.10;0.10;;;;;;;;;;5025455;28;20259;-62
2021/09/07 07:17:37;;;;;;;0.05;0.05;;;;;;;;;;5020254;28;20264;-63
2021/09/07 07:20:04;;;;;;;0.00;0.00;;;;;;;;;;5027513;28;20202;-60
2021/09/07 07:22:30;;;;;;;0.10;0.10;;;;;;;;;;5025844;28;20400;-60
2021/09/07 07:24:58;;;;;;;0.10;0.10;;;;;;;;;;5011811;28;20222;-61
2021/09/07 07:27:24;;;;;;;0.00;0.00;;;;;;;;;;5017479;28;20213;-61
2021/09/07 07:29:50;;;;;;;0.10;0.10;;;;;;;;;;5033149;28;20221;-61
2021/09/07 07:32:17;;;;;;;0.00;0.00;;;;;;;;;;5026822;28;20215;-60
2021/09/07 07:34:43;;;;;;;0.10;0.10;;;;;;;;;;5022556;28;20280;-62
2021/09/07 07:37:10;;;;;;;0.00;0.00;;;;;;;;;;5028829;28;20250;-62
2021/09/07 07:39:37;;;;;;;0.08;0.08;;;;;;;;;;5030147;28;20207;-64
2021/09/07 07:42:04;;;;;;;0.00;0.00;;;;;;;;;;5033603;28;20491;-65
2021/09/07 07:44:31;;;;;;;0.00;0.00;;;;;;;;;;5025806;28;20260;-64
2021/09/07 07:46:57;;;;;;;0.10;0.10;;;;;;;;;;5017670;28;20492;-65
2021/09/07 07:49:23;;;;;;;0.00;0.00;;;;;;;;;;5029631;28;20212;-65
2021/09/07 07:51:49;;;;;;;0.10;0.10;;;;;;;;;;5027556;28;20212;-65
2021/09/07 07:54:16;;;;;;;0.00;0.00;;;;;;;;;;5020202;28;20224;-65
2021/09/07 07:56:42;;;;;;;0.00;0.00;;;;;;;;;;5010664;28;20211;-65
2021/09/07 07:59:10;;;;;;;0.00;0.00;;;;;;;;;;5023948;28;20217;-65
2021/09/07 08:01:36;;;;;;;0.00;0.00;;;;;;;;;;5024351;28;20255;-65
2021/09/07 08:04:02;;;;;;;0.00;0.00;;;;;;;;;;5019620;28;20274;-65
2021/09/07 08:06:29;;;;;;;0.08;0.08;;;;;;;;;;5025346;28;20279;-66
2021/09/07 08:08:55;;;;;;;0.00;0.00;;;;;;;;;;5032315;28;20208;-66
2021/09/07 08:11:21;;;;;;;0.13;0.13;;;;;;;;;;5032184;28;20213;-66
2021/09/07 08:13:49;;;;;;;0.00;0.00;;;;;;;;;;5014790;28;20225;-65
2021/09/07 08:16:17;;;;;;;0.10;0.10;;;;;;;;;;5015126;28;20215;-65
2021/09/07 08:18:43;;;;;;;0.05;0.05;;;;;;;;;;5025173;28;20264;-65
2021/09/07 08:21:09;;;;;;;0.10;0.10;;;;;;;;;;5025150;28;20497;-64
2021/09/07 08:23:36;;;;;;;0.00;0.00;;;;;;;;;;5010947;28;20205;-65
2021/09/07 08:26:02;;;;;;;0.00;0.00;;;;;;;;;;5025110;28;20208;-66
2021/09/07 08:28:28;;;;;;;0.10;0.10;;;;;;;;;;5026340;28;20206;-66
2021/09/07 08:30:55;;;;;;;0.10;0.10;;;;;;;;;;5024450;28;20441;-64
2021/09/07 08:33:22;;;;;;;0.00;0.00;;;;;;;;;;5011378;28;20275;-65
2021/09/07 08:35:50;;;;;;;0.00;0.00;;;;;;;;;;5018912;28;20213;-63
2021/09/07 08:38:16;;;;;;;0.00;0.00;;;;;;;;;;5005215;28;20228;-64
2021/09/07 08:40:42;;;;;;;0.00;0.00;;;;;;;;;;5022711;28;20421;-65
2021/09/07 08:43:09;;;;;;;0.00;0.00;;;;;;;;;;5005021;28;20205;-64
2021/09/07 08:45:38;;;;;;;0.00;0.00;;;;;;;;;;5022508;28;20243;-65
2021/09/07 08:48:05;;;;;;;0.10;0.10;;;;;;;;;;5023029;28;20211;-66
2021/09/07 08:50:32;;;;;;;0.00;0.00;;;;;;;;;;5025313;28;20207;-65
2021/09/07 08:52:59;;;;;;;0.00;0.00;;;;;;;;;;5024507;28;20227;-65
2021/09/07 08:55:26;;;;;;;0.00;0.00;;;;;;;;;;5024495;28;20204;-65
2021/09/07 08:57:52;;;;;;;0.00;0.00;;;;;;;;;;5023943;28;20251;-66
2021/09/07 09:00:24;;;;;;;0.00;0.00;;;;;;;;;;5021313;28;20229;-66
2021/09/07 09:02:50;;;;;;;0.00;0.00;;;;;;;;;;5016572;28;20200;-65
2021/09/07 09:05:24;;;;;;;0.10;0.10;;;;;;;;;;5017442;28;20252;-65
2021/09/07 09:07:51;;;;;;;0.00;0.00;;;;;;;;;;5010797;28;20263;-65
2021/09/07 09:10:18;;;;;;;0.10;0.10;;;;;;;;;;5014293;28;20205;-65
2021/09/07 09:12:45;;;;;;;0.08;0.08;;;;;;;;;;5024180;28;20209;-65
2021/09/07 09:15:13;;;;;;;0.00;0.00;;;;;;;;;;5009436;28;20225;-66
2021/09/07 09:17:39;;;;;;;0.00;0.00;;;;;;;;;;5008369;28;20206;-65
2021/09/07 09:20:06;;;;;;;0.00;0.00;;;;;;;;;;5027345;28;20209;-66
2021/09/07 09:22:43;;;;;;;0.10;0.10;;;;;;;;;;5023651;28;20213;-66
2021/09/07 09:25:24;;;;;;;0.10;0.10;;;;;;;;;;5037880;28;20200;-66
2021/09/07 09:28:06;;;;;;;0.10;0.10;;;;;;;;;;5013663;28;20443;-65
2021/09/07 09:30:39;;;;;;;0.00;0.00;;;;;;;;;;5027121;28;20239;-69
2021/09/07 09:33:06;;;;;;;0.00;0.00;;;;;;;;;;5032162;28;20202;-68
2021/09/07 09:35:42;;;;;;;0.00;0.00;;;;;;;;;;5009702;28;20250;-69
2021/09/07 09:38:08;;;;;;;0.00;0.00;;;;;;;;;;5023812;28;20414;-68
2021/09/07 09:40:35;;;;;;;0.05;0.05;;;;;;;;;;5020515;28;20202;-68
2021/09/07 09:43:20;;;;;;;0.10;0.10;;;;;;;;;;5022310;28;20435;-69
2021/09/07 09:45:46;;;;;;;0.00;0.00;;;;;;;;;;5008184;28;20198;-69
2021/09/07 09:48:20;;;;;;;0.00;0.00;;;;;;;;;;5013616;28;20268;-67
2021/09/07 09:50:48;;;;;;;0.00;0.00;;;;;;;;;;5020041;28;20216;-68
2021/09/07 09:53:15;;;;;;;0.00;0.00;;;;;;;;;;5003525;28;20206;-68
2021/09/07 09:55:41;;;;;;;0.00;0.00;;;;;;;;;;5016263;28;20249;-68
2021/09/07 09:58:09;;;;;;;0.00;0.00;;;;;;;;;;5020181;28;20216;-68
2021/09/07 10:00:36;;;;;;;0.00;0.00;;;;;;;;;;5014406;28;20569;-67
2021/09/07 10:03:03;;;;;;;0.10;0.10;;;;;;;;;;5009849;28;20220;-69
2021/09/07 10:05:29;;;;;;;0.10;0.10;;;;;;;;;;5022963;28;20270;-69
2021/09/07 10:07:55;;;;;;;0.00;0.00;;;;;;;;;;5018969;28;20244;-68
2021/09/07 10:10:22;;;;;;;0.10;0.10;;;;;;;;;;5019245;28;20243;-68
2021/09/07 10:12:55;;;;;;;0.00;0.00;;;;;;;;;;5019235;28;20228;-68
2021/09/07 10:15:26;;;;;;;0.00;0.00;;;;;;;;;;5011668;28;20245;-68
2021/09/07 10:18:28;;;;;;;0.40;0.40;;;;;;;;;;5018900;28;20236;-69
2021/09/07 10:21:03;;;;;;;0.08;0.08;;;;;;;;;;5028452;28;20446;-69
2021/09/07 10:23:49;;;;;;;0.98;0.98;;;;;;;;;;5016968;28;20204;-69
2021/09/07 10:26:15;;;;;;;0.00;0.00;;;;;;;;;;5016565;28;20205;-68
2021/09/07 10:28:43;;;;;;;0.00;0.00;;;;;;;;;;5022841;28;20301;-69
2021/09/07 10:31:12;;;;;;;0.00;0.00;;;;;;;;;;5021091;28;20201;-69
2021/09/07 10:33:39;;;;;;;0.10;0.10;;;;;;;;;;5036234;28;20303;-70
2021/09/07 10:36:11;;;;;;;0.05;0.05;;;;;;;;;;5022862;28;20268;-69
2021/09/07 10:38:38;;;;;;;0.00;0.00;;;;;;;;;;5020767;28;20403;-69
2021/09/07 10:41:05;;;;;;;0.20;0.20;;;;;;;;;;5022665;28;20205;-69
2021/09/07 10:43:58;;;;;;;0.00;0.00;;;;;;;;;;5026110;28;20211;-68
2021/09/07 10:46:49;;;;;;;0.00;0.00;;;;;;;;;;4977217;28;20214;-67
2021/09/07 10:49:23;;;;;;;0.00;0.00;;;;;;;;;;5024463;28;20227;-68
2021/09/07 10:52:08;;;;;;;0.10;0.10;;;;;;;;;;5029163;28;20412;-67
2021/09/07 10:54:35;;;;;;;0.03;0.03;;;;;;;;;;5017271;28;20474;-67
2021/09/07 10:57:01;;;;;;;0.00;0.00;;;;;;;;;;5027341;28;20305;-67
2021/09/07 10:59:47;;;;;;;0.00;0.00;;;;;;;;;;5022884;28;20206;-68
2021/09/07 11:02:35;;;;;;;0.00;0.00;;;;;;;;;;5022301;28;20213;-68
2021/09/07 11:05:03;;;;;;;0.45;0.45;;;;;;;;;;5020894;28;20221;-67
2021/09/07 11:07:37;;;;;;;0.00;0.00;;;;;;;;;;5017877;28;20429;-68
2021/09/07 11:10:04;;;;;;;0.00;0.00;;;;;;;;;;5016041;28;20365;-69
2021/09/07 11:12:31;;;;;;;0.00;0.00;;;;;;;;;;5018314;28;20285;-68
2021/09/07 11:15:05;;;;;;;0.00;0.00;;;;;;;;;;5022415;28;20309;-69
2021/09/07 11:17:31;;;;;;;0.00;0.00;;;;;;;;;;5022385;28;20213;-68
2021/09/07 11:20:00;;;;;;;0.10;0.10;;;;;;;;;;5024352;28;20205;-68
2021/09/07 11:22:26;;;;;;;0.00;0.00;;;;;;;;;;5014990;28;20301;-69
2021/09/07 11:25:01;;;;;;;0.20;0.20;;;;;;;;;;5020672;28;20197;-70
2021/09/07 11:27:27;;;;;;;0.00;0.00;;;;;;;;;;5014110;28;20209;-68
2021/09/07 11:29:53;;;;;;;0.00;0.00;;;;;;;;;;5027167;28;20281;-69
2021/09/07 11:32:20;;;;;;;0.00;0.00;;;;;;;;;;5025998;28;20206;-69
2021/09/07 11:35:06;;;;;;;0.00;0.00;;;;;;;;;;5025593;28;20544;-69
2021/09/07 11:37:34;;;;;;;0.00;0.00;;;;;;;;;;5016796;28;20488;-69
2021/09/07 11:40:07;;;;;;;0.00;0.00;;;;;;;;;;5025638;28;20468;-69
2021/09/07 11:42:42;;;;;;;0.00;0.00;;;;;;;;;;5025762;28;20520;-70
2021/09/07 11:45:08;;;;;;;0.03;0.03;;;;;;;;;;5025347;28;20520;-68
2021/09/07 11:47:35;;;;;;;0.00;0.00;;;;;;;;;;5025558;28;20300;-69
2021/09/07 11:50:01;;;;;;;0.00;0.00;;;;;;;;;;5022620;28;20206;-68
2021/09/07 11:52:28;;;;;;;0.00;0.00;;;;;;;;;;5025042;28;20488;-67
2021/09/07 11:54:55;;;;;;;0.00;0.00;;;;;;;;;;5021361;28;20272;-68
2021/09/07 11:57:22;;;;;;;0.00;0.00;;;;;;;;;;5019657;28;20218;-69
2021/09/07 11:59:58;;;;;;;0.00;0.00;;;;;;;;;;5024777;28;20280;-68
2021/09/07 12:02:26;;;;;;;0.00;0.00;;;;;;;;;;5025174;28;20488;-69
2021/09/07 12:04:56;;;;;;;0.00;0.00;;;;;;;;;;5024638;28;20229;-68
2021/09/07 12:07:23;;;;;;;0.00;0.00;;;;;;;;;;5032598;28;20209;-66
2021/09/07 12:09:49;;;;;;;0.45;0.45;;;;;;;;;;5024627;28;20386;-68
2021/09/07 12:12:17;;;;;;;0.10;0.10;;;;;;;;;;5019941;28;20512;-68
2021/09/07 12:14:45;;;;;;;2.17;1.27;;;;;;;;;;5023324;28;20229;-68
2021/09/07 12:17:15;;;;;;;0.00;0.00;;;;;;;;;;5024198;28;20217;-74
2021/09/07 12:19:43;;;;;;;9.65;3.08;;;;;;;;;;5022932;28;20204;-72
2021/09/07 12:22:15;;;;;;;0.00;0.00;;;;;;;;;;5023000;28;20281;-70
2021/09/07 12:24:42;;;;;;;0.00;0.00;;;;;;;;;;5017337;28;20216;-70
2021/09/07 12:27:19;;;;;;;0.00;0.00;;;;;;;;;;5024548;28;20234;-71
2021/09/07 12:30:01;;;;;;;0.00;0.00;;;;;;;;;;5015032;28;20316;-70
2021/09/07 12:32:27;;;;;;;0.00;0.00;;;;;;;;;;5023383;28;20210;-71
2021/09/07 12:34:54;;;;;;;0.00;0.00;;;;;;;;;;5024676;28;20368;-72
2021/09/07 12:37:20;;;;;;;0.00;0.00;;;;;;;;;;5020053;28;20264;-70
2021/09/07 12:39:46;;;;;;;0.52;0.52;;;;;;;;;;5019674;28;20239;-71
2021/09/07 12:42:12;;;;;;;0.00;0.00;;;;;;;;;;5023448;28;20202;-70
2021/09/07 12:44:40;;;;;;;0.00;0.00;;;;;;;;;;5020064;28;20205;-70
2021/09/07 12:47:06;;;;;;;0.10;0.10;;;;;;;;;;5024626;28;20320;-70
2021/09/07 12:49:32;;;;;;;0.10;0.10;;;;;;;;;;5017884;28;20227;-70
2021/09/07 12:51:59;;;;;;;0.00;0.00;;;;;;;;;;5026805;28;20477;-70
2021/09/07 12:54:25;;;;;;;0.03;0.03;;;;;;;;;;5022473;28;20202;-69
2021/09/07 12:56:51;;;;;;;0.00;0.00;;;;;;;;;;5024503;28;20206;-67
2021/09/07 12:59:17;;;;;;;0.00;0.00;;;;;;;;;;5013594;28;20245;-69
2021/09/07 13:01:45;;;;;;;0.00;0.00;;;;;;;;;;5012432;28;20273;-69
2021/09/07 13:04:11;;;;;;;0.00;0.00;;;;;;;;;;5015119;28;20251;-70
2021/09/07 13:06:38;;;;;;;0.10;0.10;;;;;;;;;;5016576;28;20562;-68
2021/09/07 13:09:05;;;;;;;0.10;0.10;;;;;;;;;;5016188;28;20212;-65
2021/09/07 13:11:31;;;;;;;0.00;0.00;;;;;;;;;;5014681;28;20285;-65
2021/09/07 13:13:58;;;;;;;0.00;0.00;;;;;;;;;;5023600;28;20241;-66
2021/09/07 13:16:24;;;;;;;0.00;0.00;;;;;;;;;;5023373;28;20578;-66
2021/09/07 13:18:52;;;;;;;0.00;0.00;;;;;;;;;;5023073;28;20390;-66
2021/09/07 13:21:19;;;;;;;0.00;0.00;;;;;;;;;;5023013;28;20224;-67
2021/09/07 13:23:46;;;;;;;0.15;0.15;;;;;;;;;;5028712;28;20210;-67
2021/09/07 13:26:12;;;;;;;0.00;0.00;;;;;;;;;;5016454;28;21337;-67
2021/09/07 13:28:39;;;;;;;0.00;0.00;;;;;;;;;;5019204;28;20268;-66
2021/09/07 13:31:05;;;;;;;0.05;0.05;;;;;;;;;;5007617;28;20213;-66
2021/09/07 13:33:32;;;;;;;0.00;0.00;;;;;;;;;;5016962;28;20205;-67
2021/09/07 13:36:00;;;;;;;0.03;0.03;;;;;;;;;;5023570;28;20381;-69
2021/09/07 13:38:26;;;;;;;0.00;0.00;;;;;;;;;;5021480;28;20227;-67
2021/09/07 13:40:53;;;;;;;0.10;0.10;;;;;;;;;;5018353;28;20428;-69
2021/09/07 13:43:19;;;;;;;0.00;0.00;;;;;;;;;;5013553;28;20218;-68
2021/09/07 13:45:46;;;;;;;0.00;0.00;;;;;;;;;;5015002;28;20236;-68
2021/09/07 13:48:12;;;;;;;0.00;0.00;;;;;;;;;;5023087;28;20209;-68
2021/09/07 13:50:39;;;;;;;0.00;0.00;;;;;;;;;;5014971;28;20269;-69
2021/09/07 13:53:06;;;;;;;0.05;0.05;;;;;;;;;;5007987;28;20229;-67
2021/09/07 13:55:33;;;;;;;0.00;0.00;;;;;;;;;;5011110;28;20225;-68
2021/09/07 13:57:59;;;;;;;0.00;0.00;;;;;;;;;;5016670;28;20252;-69
2021/09/07 14:00:25;;;;;;;0.00;0.00;;;;;;;;;;5022242;28;20273;-68
2021/09/07 14:02:51;;;;;;;0.00;0.00;;;;;;;;;;5031654;28;20260;-61
2021/09/07 14:05:18;;;;;;;0.00;0.00;;;;;;;;;;5027721;28;20263;-61
2021/09/07 14:07:44;;;;;;;0.00;0.00;;;;;;;;;;5022888;28;20213;-62
2021/09/07 14:10:13;;;;;;;0.00;0.00;;;;;;;;;;5026534;28;20428;-61
2021/09/07 14:12:39;;;;;;;0.00;0.00;;;;;;;;;;5022791;28;20340;-62
2021/09/07 14:15:06;;;;;;;0.00;0.00;;;;;;;;;;5008896;28;20233;-62
2021/09/07 14:17:32;;;;;;;0.05;0.05;;;;;;;;;;5031379;28;20571;-62
2021/09/07 14:19:59;;;;;;;0.00;0.00;;;;;;;;;;5023244;28;20202;-62
2021/09/07 14:22:26;;;;;;;0.00;0.00;;;;;;;;;;5018356;28;20206;-62
2021/09/07 14:24:52;;;;;;;0.00;0.00;;;;;;;;;;5026948;28;20374;-62
2021/09/07 14:27:20;;;;;;;0.00;0.00;;;;;;;;;;5022766;28;20201;-66
2021/09/07 14:29:46;;;;;;;0.00;0.00;;;;;;;;;;5027511;28;20217;-60
2021/09/07 14:32:12;;;;;;;0.00;0.00;;;;;;;;;;5018525;28;20202;-60
2021/09/07 14:34:39;;;;;;;0.10;0.10;;;;;;;;;;5022084;28;20205;-60
2021/09/07 14:37:06;;;;;;;0.00;0.00;;;;;;;;;;5022859;28;20555;-61
2021/09/07 14:39:32;;;;;;;0.00;0.00;;;;;;;;;;5022923;28;20216;-60
2021/09/07 14:41:58;;;;;;;0.00;0.00;;;;;;;;;;5022562;28;20240;-61
2021/09/07 14:44:26;;;;;;;0.10;0.10;;;;;;;;;;5022589;28;20209;-60
2021/09/07 14:46:53;;;;;;;0.00;0.00;;;;;;;;;;5022496;28;20216;-61